sensor_id;sensor_type;location;lat;lon;timestamp;P1;durP1;ratioP1;P2;durP2;ratioP2
14348;SDS011;7258;50.376;8.742;2023-10-08T00:00:44;9.07;;;5.68;;
14348;SDS011;7258;50.376;8.742;2023-10-08T00:02:48;9.23;;;5.60;;
14348;SDS011;7258;50.376;8.742;2023-10-08T00:04:52;7.07;;;5.50;;
14348;SDS011;7258;50.376;8.742;2023-10-08T00:06:55;6.88;;;5.50;;
14348;SDS011;7258;50.376;8.742;2023-10-08T00:08:57;6.47;;;5.35;;
14348;SDS011;7258;50.376;8.742;2023-10-08T00:11:02;9.07;;;5.50;;
14348;SDS011;7258;50.376;8.742;2023-10-08T00:13:09;8.73;;;6.00;;
14348;SDS011;7258;50.376;8.742;2023-10-08T00:15:12;7.65;;;5.80;;
14348;SDS011;7258;50.376;8.742;2023-10-08T00:17:15;6.35;;;5.55;;
14348;SDS011;7258;50.376;8.742;2023-10-08T00:19:19;7.70;;;5.38;;
14348;SDS011;7258;50.376;8.742;2023-10-08T00:21:23;7.93;;;5.45;;
14348;SDS011;7258;50.376;8.742;2023-10-08T00:23:28;9.13;;;5.35;;
14348;SDS011;7258;50.376;8.742;2023-10-08T00:25:31;8.98;;;5.30;;
14348;SDS011;7258;50.376;8.742;2023-10-08T00:27:35;8.23;;;4.70;;
14348;SDS011;7258;50.376;8.742;2023-10-08T00:29:42;7.80;;;5.00;;
14348;SDS011;7258;50.376;8.742;2023-10-08T00:31:45;7.28;;;5.28;;
14348;SDS011;7258;50.376;8.742;2023-10-08T00:33:49;6.65;;;4.80;;
14348;SDS011;7258;50.376;8.742;2023-10-08T00:35:51;8.90;;;5.20;;
14348;SDS011;7258;50.376;8.742;2023-10-08T00:37:53;7.43;;;5.00;;
14348;SDS011;7258;50.376;8.742;2023-10-08T00:40:01;5.95;;;4.30;;
14348;SDS011;7258;50.376;8.742;2023-10-08T00:42:13;7.57;;;5.13;;
14348;SDS011;7258;50.376;8.742;2023-10-08T00:44:15;10.68;;;5.57;;
14348;SDS011;7258;50.376;8.742;2023-10-08T00:46:25;7.20;;;5.53;;
14348;SDS011;7258;50.376;8.742;2023-10-08T00:48:32;7.30;;;5.15;;
14348;SDS011;7258;50.376;8.742;2023-10-08T00:50:38;5.13;;;4.63;;
14348;SDS011;7258;50.376;8.742;2023-10-08T00:52:45;6.88;;;4.68;;
14348;SDS011;7258;50.376;8.742;2023-10-08T00:54:58;6.15;;;5.10;;
14348;SDS011;7258;50.376;8.742;2023-10-08T00:57:10;7.55;;;5.15;;
14348;SDS011;7258;50.376;8.742;2023-10-08T00:59:15;8.52;;;5.45;;
14348;SDS011;7258;50.376;8.742;2023-10-08T01:01:22;7.07;;;5.07;;
14348;SDS011;7258;50.376;8.742;2023-10-08T01:03:26;6.43;;;4.50;;
14348;SDS011;7258;50.376;8.742;2023-10-08T01:05:29;8.10;;;5.50;;
14348;SDS011;7258;50.376;8.742;2023-10-08T01:07:48;6.63;;;4.90;;
14348;SDS011;7258;50.376;8.742;2023-10-08T01:09:52;8.30;;;5.22;;
14348;SDS011;7258;50.376;8.742;2023-10-08T01:12:07;8.43;;;5.63;;
14348;SDS011;7258;50.376;8.742;2023-10-08T01:14:10;6.90;;;5.20;;
14348;SDS011;7258;50.376;8.742;2023-10-08T01:16:13;7.03;;;5.28;;
14348;SDS011;7258;50.376;8.742;2023-10-08T01:18:16;7.30;;;5.05;;
14348;SDS011;7258;50.376;8.742;2023-10-08T01:20:28;7.50;;;5.00;;
14348;SDS011;7258;50.376;8.742;2023-10-08T01:22:40;7.15;;;4.80;;
14348;SDS011;7258;50.376;8.742;2023-10-08T01:24:47;6.13;;;4.85;;
14348;SDS011;7258;50.376;8.742;2023-10-08T01:26:50;7.47;;;4.93;;
14348;SDS011;7258;50.376;8.742;2023-10-08T01:28:52;6.90;;;5.07;;
14348;SDS011;7258;50.376;8.742;2023-10-08T01:30:55;5.85;;;5.25;;
14348;SDS011;7258;50.376;8.742;2023-10-08T01:33:02;9.63;;;5.55;;
14348;SDS011;7258;50.376;8.742;2023-10-08T01:35:05;11.27;;;5.13;;
14348;SDS011;7258;50.376;8.742;2023-10-08T01:37:23;9.05;;;5.65;;
14348;SDS011;7258;50.376;8.742;2023-10-08T01:39:27;8.27;;;5.07;;
14348;SDS011;7258;50.376;8.742;2023-10-08T01:41:29;7.68;;;5.03;;
14348;SDS011;7258;50.376;8.742;2023-10-08T01:43:32;7.32;;;5.40;;
14348;SDS011;7258;50.376;8.742;2023-10-08T01:45:36;7.72;;;5.03;;
14348;SDS011;7258;50.376;8.742;2023-10-08T01:47:42;5.28;;;4.75;;
14348;SDS011;7258;50.376;8.742;2023-10-08T01:49:45;7.00;;;5.18;;
14348;SDS011;7258;50.376;8.742;2023-10-08T01:51:48;5.93;;;5.10;;
14348;SDS011;7258;50.376;8.742;2023-10-08T01:53:53;7.07;;;4.57;;
14348;SDS011;7258;50.376;8.742;2023-10-08T01:55:58;7.30;;;4.70;;
14348;SDS011;7258;50.376;8.742;2023-10-08T01:58:02;6.68;;;4.88;;
14348;SDS011;7258;50.376;8.742;2023-10-08T02:00:06;7.20;;;4.57;;
14348;SDS011;7258;50.376;8.742;2023-10-08T02:02:10;5.78;;;4.18;;
14348;SDS011;7258;50.376;8.742;2023-10-08T02:04:16;8.48;;;4.25;;
14348;SDS011;7258;50.376;8.742;2023-10-08T02:06:19;7.95;;;4.55;;
14348;SDS011;7258;50.376;8.742;2023-10-08T02:08:22;7.88;;;4.43;;
14348;SDS011;7258;50.376;8.742;2023-10-08T02:10:25;8.13;;;5.00;;
14348;SDS011;7258;50.376;8.742;2023-10-08T02:12:30;7.40;;;4.43;;
14348;SDS011;7258;50.376;8.742;2023-10-08T02:14:33;9.50;;;4.10;;
14348;SDS011;7258;50.376;8.742;2023-10-08T02:16:36;7.88;;;4.95;;
14348;SDS011;7258;50.376;8.742;2023-10-08T02:18:39;9.00;;;4.47;;
14348;SDS011;7258;50.376;8.742;2023-10-08T02:20:42;7.68;;;4.22;;
14348;SDS011;7258;50.376;8.742;2023-10-08T02:22:45;8.18;;;4.15;;
14348;SDS011;7258;50.376;8.742;2023-10-08T02:24:50;7.05;;;3.80;;
14348;SDS011;7258;50.376;8.742;2023-10-08T02:26:54;4.65;;;3.80;;
14348;SDS011;7258;50.376;8.742;2023-10-08T02:29:00;6.15;;;4.30;;
14348;SDS011;7258;50.376;8.742;2023-10-08T02:31:01;8.68;;;4.50;;
14348;SDS011;7258;50.376;8.742;2023-10-08T02:33:04;8.02;;;3.85;;
14348;SDS011;7258;50.376;8.742;2023-10-08T02:35:15;8.77;;;4.75;;
14348;SDS011;7258;50.376;8.742;2023-10-08T02:37:18;5.70;;;4.13;;
14348;SDS011;7258;50.376;8.742;2023-10-08T02:39:21;6.50;;;4.00;;
14348;SDS011;7258;50.376;8.742;2023-10-08T02:41:27;5.40;;;4.05;;
14348;SDS011;7258;50.376;8.742;2023-10-08T02:43:30;6.40;;;4.03;;
14348;SDS011;7258;50.376;8.742;2023-10-08T02:45:34;7.03;;;3.92;;
14348;SDS011;7258;50.376;8.742;2023-10-08T02:47:41;9.45;;;4.70;;
14348;SDS011;7258;50.376;8.742;2023-10-08T02:49:46;6.38;;;3.97;;
14348;SDS011;7258;50.376;8.742;2023-10-08T02:51:50;7.18;;;4.20;;
14348;SDS011;7258;50.376;8.742;2023-10-08T02:53:53;9.02;;;4.10;;
14348;SDS011;7258;50.376;8.742;2023-10-08T02:55:55;8.25;;;4.22;;
14348;SDS011;7258;50.376;8.742;2023-10-08T02:57:58;8.30;;;4.53;;
14348;SDS011;7258;50.376;8.742;2023-10-08T03:00:03;6.05;;;3.80;;
14348;SDS011;7258;50.376;8.742;2023-10-08T03:02:15;8.68;;;4.47;;
14348;SDS011;7258;50.376;8.742;2023-10-08T03:04:21;7.03;;;4.13;;
14348;SDS011;7258;50.376;8.742;2023-10-08T03:06:24;8.73;;;4.10;;
14348;SDS011;7258;50.376;8.742;2023-10-08T03:08:27;8.35;;;4.57;;
14348;SDS011;7258;50.376;8.742;2023-10-08T03:10:32;9.02;;;4.28;;
14348;SDS011;7258;50.376;8.742;2023-10-08T03:12:35;8.02;;;3.88;;
14348;SDS011;7258;50.376;8.742;2023-10-08T03:14:37;8.20;;;4.57;;
14348;SDS011;7258;50.376;8.742;2023-10-08T03:16:51;10.07;;;4.40;;
14348;SDS011;7258;50.376;8.742;2023-10-08T03:19:09;6.35;;;4.43;;
14348;SDS011;7258;50.376;8.742;2023-10-08T03:21:12;9.00;;;4.15;;
14348;SDS011;7258;50.376;8.742;2023-10-08T03:23:25;5.35;;;3.72;;
14348;SDS011;7258;50.376;8.742;2023-10-08T03:25:35;6.88;;;4.45;;
14348;SDS011;7258;50.376;8.742;2023-10-08T03:27:42;6.20;;;4.15;;
14348;SDS011;7258;50.376;8.742;2023-10-08T03:29:45;6.85;;;3.85;;
14348;SDS011;7258;50.376;8.742;2023-10-08T03:31:48;8.10;;;4.32;;
14348;SDS011;7258;50.376;8.742;2023-10-08T03:33:51;7.82;;;5.00;;
14348;SDS011;7258;50.376;8.742;2023-10-08T03:35:55;8.80;;;4.80;;
14348;SDS011;7258;50.376;8.742;2023-10-08T03:37:58;6.38;;;4.60;;
14348;SDS011;7258;50.376;8.742;2023-10-08T03:40:20;6.40;;;5.28;;
14348;SDS011;7258;50.376;8.742;2023-10-08T03:42:33;8.93;;;5.15;;
14348;SDS011;7258;50.376;8.742;2023-10-08T03:44:41;7.80;;;4.60;;
14348;SDS011;7258;50.376;8.742;2023-10-08T03:46:44;8.15;;;4.70;;
14348;SDS011;7258;50.376;8.742;2023-10-08T03:48:48;7.88;;;5.25;;
14348;SDS011;7258;50.376;8.742;2023-10-08T03:50:53;7.20;;;5.03;;
14348;SDS011;7258;50.376;8.742;2023-10-08T03:53:09;6.00;;;4.43;;
14348;SDS011;7258;50.376;8.742;2023-10-08T03:55:13;8.48;;;4.95;;
14348;SDS011;7258;50.376;8.742;2023-10-08T03:57:23;8.25;;;5.20;;
14348;SDS011;7258;50.376;8.742;2023-10-08T03:59:42;6.70;;;4.90;;
14348;SDS011;7258;50.376;8.742;2023-10-08T04:01:49;8.27;;;4.88;;
14348;SDS011;7258;50.376;8.742;2023-10-08T04:03:56;7.82;;;5.00;;
14348;SDS011;7258;50.376;8.742;2023-10-08T04:06:02;6.13;;;4.70;;
14348;SDS011;7258;50.376;8.742;2023-10-08T04:08:17;5.53;;;4.75;;
14348;SDS011;7258;50.376;8.742;2023-10-08T04:10:26;8.23;;;5.07;;
14348;SDS011;7258;50.376;8.742;2023-10-08T04:13:09;8.52;;;5.15;;
14348;SDS011;7258;50.376;8.742;2023-10-08T04:15:17;8.50;;;4.93;;
14348;SDS011;7258;50.376;8.742;2023-10-08T04:17:21;7.20;;;4.75;;
14348;SDS011;7258;50.376;8.742;2023-10-08T04:19:24;9.27;;;5.47;;
14348;SDS011;7258;50.376;8.742;2023-10-08T04:21:29;8.57;;;4.57;;
14348;SDS011;7258;50.376;8.742;2023-10-08T04:23:36;7.05;;;4.43;;
14348;SDS011;7258;50.376;8.742;2023-10-08T04:25:38;7.32;;;4.78;;
14348;SDS011;7258;50.376;8.742;2023-10-08T04:27:40;9.82;;;5.07;;
14348;SDS011;7258;50.376;8.742;2023-10-08T04:29:44;8.45;;;4.80;;
14348;SDS011;7258;50.376;8.742;2023-10-08T04:31:51;6.43;;;4.90;;
14348;SDS011;7258;50.376;8.742;2023-10-08T04:34:03;6.65;;;5.28;;
14348;SDS011;7258;50.376;8.742;2023-10-08T04:36:11;9.38;;;6.10;;
14348;SDS011;7258;50.376;8.742;2023-10-08T04:38:19;7.82;;;5.28;;
14348;SDS011;7258;50.376;8.742;2023-10-08T04:40:25;6.78;;;4.95;;
14348;SDS011;7258;50.376;8.742;2023-10-08T04:42:34;8.48;;;5.10;;
14348;SDS011;7258;50.376;8.742;2023-10-08T04:44:41;9.38;;;4.97;;
14348;SDS011;7258;50.376;8.742;2023-10-08T04:46:44;8.63;;;5.22;;
14348;SDS011;7258;50.376;8.742;2023-10-08T04:48:53;7.57;;;4.53;;
14348;SDS011;7258;50.376;8.742;2023-10-08T04:50:57;7.28;;;4.78;;
14348;SDS011;7258;50.376;8.742;2023-10-08T04:53:03;8.95;;;4.88;;
14348;SDS011;7258;50.376;8.742;2023-10-08T04:55:09;5.95;;;4.10;;
14348;SDS011;7258;50.376;8.742;2023-10-08T04:57:19;6.40;;;4.88;;
14348;SDS011;7258;50.376;8.742;2023-10-08T04:59:27;5.75;;;4.53;;
14348;SDS011;7258;50.376;8.742;2023-10-08T05:01:35;6.57;;;4.93;;
14348;SDS011;7258;50.376;8.742;2023-10-08T05:03:49;6.32;;;4.70;;
14348;SDS011;7258;50.376;8.742;2023-10-08T05:06:27;7.93;;;4.80;;
14348;SDS011;7258;50.376;8.742;2023-10-08T05:08:51;7.85;;;4.90;;
14348;SDS011;7258;50.376;8.742;2023-10-08T05:10:59;6.90;;;4.57;;
14348;SDS011;7258;50.376;8.742;2023-10-08T05:13:27;7.13;;;4.93;;
14348;SDS011;7258;50.376;8.742;2023-10-08T05:15:34;6.57;;;4.20;;
14348;SDS011;7258;50.376;8.742;2023-10-08T05:17:43;7.07;;;4.70;;
14348;SDS011;7258;50.376;8.742;2023-10-08T05:19:59;8.60;;;4.20;;
14348;SDS011;7258;50.376;8.742;2023-10-08T05:22:21;10.13;;;4.78;;
14348;SDS011;7258;50.376;8.742;2023-10-08T05:24:45;5.88;;;4.90;;
14348;SDS011;7258;50.376;8.742;2023-10-08T05:27:08;6.50;;;5.00;;
14348;SDS011;7258;50.376;8.742;2023-10-08T05:29:26;6.97;;;4.97;;
14348;SDS011;7258;50.376;8.742;2023-10-08T05:32:12;6.13;;;5.13;;
14348;SDS011;7258;50.376;8.742;2023-10-08T05:34:29;6.05;;;4.97;;
14348;SDS011;7258;50.376;8.742;2023-10-08T05:36:44;6.38;;;4.60;;
14348;SDS011;7258;50.376;8.742;2023-10-08T05:38:52;9.63;;;5.20;;
14348;SDS011;7258;50.376;8.742;2023-10-08T05:41:01;6.93;;;5.63;;
14348;SDS011;7258;50.376;8.742;2023-10-08T05:43:13;6.90;;;5.30;;
14348;SDS011;7258;50.376;8.742;2023-10-08T05:45:36;7.10;;;5.22;;
14348;SDS011;7258;50.376;8.742;2023-10-08T05:47:38;9.75;;;5.72;;
14348;SDS011;7258;50.376;8.742;2023-10-08T05:49:42;8.98;;;5.47;;
14348;SDS011;7258;50.376;8.742;2023-10-08T05:51:55;5.20;;;4.70;;
14348;SDS011;7258;50.376;8.742;2023-10-08T05:54:27;7.55;;;5.65;;
14348;SDS011;7258;50.376;8.742;2023-10-08T05:56:48;7.65;;;5.28;;
14348;SDS011;7258;50.376;8.742;2023-10-08T05:59:07;5.93;;;5.25;;
14348;SDS011;7258;50.376;8.742;2023-10-08T06:01:21;9.80;;;4.93;;
14348;SDS011;7258;50.376;8.742;2023-10-08T06:03:31;6.40;;;5.28;;
14348;SDS011;7258;50.376;8.742;2023-10-08T06:05:34;9.20;;;5.85;;
14348;SDS011;7258;50.376;8.742;2023-10-08T06:07:45;7.28;;;5.20;;
14348;SDS011;7258;50.376;8.742;2023-10-08T06:09:49;7.78;;;5.38;;
14348;SDS011;7258;50.376;8.742;2023-10-08T06:12:03;8.43;;;5.47;;
14348;SDS011;7258;50.376;8.742;2023-10-08T06:14:13;8.35;;;5.18;;
14348;SDS011;7258;50.376;8.742;2023-10-08T06:16:18;10.30;;;5.50;;
14348;SDS011;7258;50.376;8.742;2023-10-08T06:18:34;7.75;;;5.65;;
14348;SDS011;7258;50.376;8.742;2023-10-08T06:20:38;8.25;;;5.20;;
14348;SDS011;7258;50.376;8.742;2023-10-08T06:22:44;6.93;;;5.57;;
14348;SDS011;7258;50.376;8.742;2023-10-08T06:24:47;8.73;;;5.25;;
14348;SDS011;7258;50.376;8.742;2023-10-08T06:26:50;8.90;;;5.82;;
14348;SDS011;7258;50.376;8.742;2023-10-08T06:28:53;8.32;;;5.63;;
14348;SDS011;7258;50.376;8.742;2023-10-08T06:30:58;6.93;;;5.18;;
14348;SDS011;7258;50.376;8.742;2023-10-08T06:33:02;6.30;;;5.50;;
14348;SDS011;7258;50.376;8.742;2023-10-08T06:35:07;7.90;;;5.03;;
14348;SDS011;7258;50.376;8.742;2023-10-08T06:37:18;7.22;;;5.25;;
14348;SDS011;7258;50.376;8.742;2023-10-08T06:39:21;8.60;;;5.65;;
14348;SDS011;7258;50.376;8.742;2023-10-08T06:41:27;8.35;;;5.70;;
14348;SDS011;7258;50.376;8.742;2023-10-08T06:43:49;7.55;;;5.50;;
14348;SDS011;7258;50.376;8.742;2023-10-08T06:46:03;9.32;;;5.22;;
14348;SDS011;7258;50.376;8.742;2023-10-08T06:48:09;8.57;;;5.53;;
14348;SDS011;7258;50.376;8.742;2023-10-08T06:50:12;7.57;;;4.90;;
14348;SDS011;7258;50.376;8.742;2023-10-08T06:52:16;8.05;;;5.57;;
14348;SDS011;7258;50.376;8.742;2023-10-08T06:54:20;6.72;;;5.30;;
14348;SDS011;7258;50.376;8.742;2023-10-08T06:56:23;10.13;;;5.38;;
14348;SDS011;7258;50.376;8.742;2023-10-08T06:58:26;8.00;;;5.78;;
14348;SDS011;7258;50.376;8.742;2023-10-08T07:00:29;8.82;;;5.70;;
14348;SDS011;7258;50.376;8.742;2023-10-08T07:02:40;6.88;;;5.13;;
14348;SDS011;7258;50.376;8.742;2023-10-08T07:04:42;6.72;;;5.25;;
14348;SDS011;7258;50.376;8.742;2023-10-08T07:06:50;9.00;;;5.30;;
14348;SDS011;7258;50.376;8.742;2023-10-08T07:08:55;8.77;;;5.88;;
14348;SDS011;7258;50.376;8.742;2023-10-08T07:10:57;7.95;;;5.68;;
14348;SDS011;7258;50.376;8.742;2023-10-08T07:13:02;7.20;;;5.55;;
14348;SDS011;7258;50.376;8.742;2023-10-08T07:15:05;6.72;;;5.43;;
14348;SDS011;7258;50.376;8.742;2023-10-08T07:17:13;7.90;;;5.75;;
14348;SDS011;7258;50.376;8.742;2023-10-08T07:19:21;7.55;;;5.40;;
14348;SDS011;7258;50.376;8.742;2023-10-08T07:21:33;7.07;;;5.50;;
14348;SDS011;7258;50.376;8.742;2023-10-08T07:23:47;7.82;;;5.63;;
14348;SDS011;7258;50.376;8.742;2023-10-08T07:25:59;8.63;;;5.72;;
14348;SDS011;7258;50.376;8.742;2023-10-08T07:28:12;8.13;;;5.40;;
14348;SDS011;7258;50.376;8.742;2023-10-08T07:30:14;14.50;;;6.10;;
14348;SDS011;7258;50.376;8.742;2023-10-08T07:32:28;6.68;;;5.50;;
14348;SDS011;7258;50.376;8.742;2023-10-08T07:34:32;11.02;;;6.03;;
14348;SDS011;7258;50.376;8.742;2023-10-08T07:36:35;9.93;;;5.82;;
14348;SDS011;7258;50.376;8.742;2023-10-08T07:38:38;7.75;;;5.25;;
14348;SDS011;7258;50.376;8.742;2023-10-08T07:40:44;9.93;;;5.63;;
14348;SDS011;7258;50.376;8.742;2023-10-08T07:42:47;8.10;;;5.70;;
14348;SDS011;7258;50.376;8.742;2023-10-08T07:44:52;7.20;;;5.18;;
14348;SDS011;7258;50.376;8.742;2023-10-08T07:46:56;6.72;;;5.53;;
14348;SDS011;7258;50.376;8.742;2023-10-08T07:48:59;8.40;;;5.50;;
14348;SDS011;7258;50.376;8.742;2023-10-08T07:51:02;7.13;;;5.40;;
14348;SDS011;7258;50.376;8.742;2023-10-08T07:53:05;7.05;;;4.93;;
14348;SDS011;7258;50.376;8.742;2023-10-08T07:55:08;9.45;;;5.65;;
14348;SDS011;7258;50.376;8.742;2023-10-08T07:57:12;7.97;;;5.47;;
14348;SDS011;7258;50.376;8.742;2023-10-08T07:59:19;7.40;;;5.28;;
14348;SDS011;7258;50.376;8.742;2023-10-08T08:01:23;8.75;;;5.07;;
14348;SDS011;7258;50.376;8.742;2023-10-08T08:03:27;8.75;;;5.00;;
14348;SDS011;7258;50.376;8.742;2023-10-08T08:05:30;8.35;;;5.10;;
14348;SDS011;7258;50.376;8.742;2023-10-08T08:07:33;10.30;;;5.22;;
14348;SDS011;7258;50.376;8.742;2023-10-08T08:09:35;7.07;;;5.47;;
14348;SDS011;7258;50.376;8.742;2023-10-08T08:11:39;7.35;;;4.97;;
14348;SDS011;7258;50.376;8.742;2023-10-08T08:13:44;9.48;;;5.05;;
14348;SDS011;7258;50.376;8.742;2023-10-08T08:15:47;11.35;;;5.60;;
14348;SDS011;7258;50.376;8.742;2023-10-08T08:17:53;9.20;;;5.32;;
14348;SDS011;7258;50.376;8.742;2023-10-08T08:19:56;6.50;;;5.10;;
14348;SDS011;7258;50.376;8.742;2023-10-08T08:21:59;8.68;;;5.15;;
14348;SDS011;7258;50.376;8.742;2023-10-08T08:24:04;7.90;;;5.00;;
14348;SDS011;7258;50.376;8.742;2023-10-08T08:26:07;8.82;;;5.18;;
14348;SDS011;7258;50.376;8.742;2023-10-08T08:28:14;8.68;;;5.05;;
14348;SDS011;7258;50.376;8.742;2023-10-08T08:30:22;9.63;;;5.57;;
14348;SDS011;7258;50.376;8.742;2023-10-08T08:32:27;6.53;;;4.93;;
14348;SDS011;7258;50.376;8.742;2023-10-08T08:34:30;12.80;;;6.15;;
14348;SDS011;7258;50.376;8.742;2023-10-08T08:36:33;9.50;;;5.50;;
14348;SDS011;7258;50.376;8.742;2023-10-08T08:38:39;11.68;;;5.88;;
14348;SDS011;7258;50.376;8.742;2023-10-08T08:40:40;9.75;;;5.68;;
14348;SDS011;7258;50.376;8.742;2023-10-08T08:42:44;8.52;;;5.32;;
14348;SDS011;7258;50.376;8.742;2023-10-08T08:44:47;9.50;;;5.82;;
14348;SDS011;7258;50.376;8.742;2023-10-08T08:46:54;9.88;;;5.82;;
14348;SDS011;7258;50.376;8.742;2023-10-08T08:49:00;11.23;;;5.57;;
14348;SDS011;7258;50.376;8.742;2023-10-08T08:51:05;11.15;;;6.55;;
14348;SDS011;7258;50.376;8.742;2023-10-08T08:53:10;8.15;;;5.60;;
14348;SDS011;7258;50.376;8.742;2023-10-08T08:55:13;11.30;;;6.25;;
14348;SDS011;7258;50.376;8.742;2023-10-08T08:57:18;8.77;;;5.53;;
14348;SDS011;7258;50.376;8.742;2023-10-08T08:59:23;13.05;;;6.05;;
14348;SDS011;7258;50.376;8.742;2023-10-08T09:01:26;8.85;;;5.68;;
14348;SDS011;7258;50.376;8.742;2023-10-08T09:03:33;10.38;;;5.88;;
14348;SDS011;7258;50.376;8.742;2023-10-08T09:05:38;10.48;;;5.90;;
14348;SDS011;7258;50.376;8.742;2023-10-08T09:07:51;10.82;;;5.35;;
14348;SDS011;7258;50.376;8.742;2023-10-08T09:09:56;8.77;;;5.88;;
14348;SDS011;7258;50.376;8.742;2023-10-08T09:11:59;11.15;;;6.45;;
14348;SDS011;7258;50.376;8.742;2023-10-08T09:14:05;10.88;;;5.45;;
14348;SDS011;7258;50.376;8.742;2023-10-08T09:16:12;10.88;;;6.35;;
14348;SDS011;7258;50.376;8.742;2023-10-08T09:18:16;13.10;;;5.90;;
14348;SDS011;7258;50.376;8.742;2023-10-08T09:20:20;7.53;;;6.35;;
14348;SDS011;7258;50.376;8.742;2023-10-08T09:22:23;10.00;;;5.50;;
14348;SDS011;7258;50.376;8.742;2023-10-08T09:24:26;11.32;;;5.70;;
14348;SDS011;7258;50.376;8.742;2023-10-08T09:26:29;10.30;;;5.90;;
14348;SDS011;7258;50.376;8.742;2023-10-08T09:28:32;8.88;;;5.18;;
14348;SDS011;7258;50.376;8.742;2023-10-08T09:30:40;9.50;;;5.97;;
14348;SDS011;7258;50.376;8.742;2023-10-08T09:32:43;9.27;;;5.30;;
14348;SDS011;7258;50.376;8.742;2023-10-08T09:34:46;11.90;;;6.13;;
14348;SDS011;7258;50.376;8.742;2023-10-08T09:36:52;11.10;;;5.45;;
14348;SDS011;7258;50.376;8.742;2023-10-08T09:38:58;12.55;;;6.15;;
14348;SDS011;7258;50.376;8.742;2023-10-08T09:41:03;8.45;;;5.65;;
14348;SDS011;7258;50.376;8.742;2023-10-08T09:43:06;7.50;;;5.00;;
14348;SDS011;7258;50.376;8.742;2023-10-08T09:45:10;9.95;;;5.53;;
14348;SDS011;7258;50.376;8.742;2023-10-08T09:47:13;11.27;;;5.13;;
14348;SDS011;7258;50.376;8.742;2023-10-08T09:49:24;8.88;;;5.20;;
14348;SDS011;7258;50.376;8.742;2023-10-08T09:51:33;12.82;;;4.95;;
14348;SDS011;7258;50.376;8.742;2023-10-08T09:53:43;9.25;;;5.72;;
14348;SDS011;7258;50.376;8.742;2023-10-08T09:55:52;9.57;;;5.63;;
14348;SDS011;7258;50.376;8.742;2023-10-08T09:57:56;13.43;;;5.50;;
14348;SDS011;7258;50.376;8.742;2023-10-08T09:59:59;12.05;;;5.63;;
14348;SDS011;7258;50.376;8.742;2023-10-08T10:02:02;9.95;;;5.93;;
14348;SDS011;7258;50.376;8.742;2023-10-08T10:04:11;9.95;;;5.32;;
14348;SDS011;7258;50.376;8.742;2023-10-08T10:06:15;8.85;;;4.88;;
14348;SDS011;7258;50.376;8.742;2023-10-08T10:08:19;7.43;;;5.32;;
14348;SDS011;7258;50.376;8.742;2023-10-08T10:10:28;7.28;;;5.53;;
14348;SDS011;7258;50.376;8.742;2023-10-08T10:12:33;9.35;;;5.15;;
14348;SDS011;7258;50.376;8.742;2023-10-08T10:14:42;9.55;;;5.43;;
14348;SDS011;7258;50.376;8.742;2023-10-08T10:16:48;10.20;;;5.93;;
14348;SDS011;7258;50.376;8.742;2023-10-08T10:18:54;8.82;;;5.45;;
14348;SDS011;7258;50.376;8.742;2023-10-08T10:21:00;11.02;;;5.72;;
14348;SDS011;7258;50.376;8.742;2023-10-08T10:23:34;9.27;;;5.13;;
14348;SDS011;7258;50.376;8.742;2023-10-08T10:25:40;9.85;;;5.60;;
14348;SDS011;7258;50.376;8.742;2023-10-08T10:30:25;10.32;;;5.80;;
14348;SDS011;7258;50.376;8.742;2023-10-08T10:32:28;9.38;;;5.60;;
14348;SDS011;7258;50.376;8.742;2023-10-08T10:34:31;11.18;;;5.35;;
14348;SDS011;7258;50.376;8.742;2023-10-08T10:36:36;8.07;;;5.00;;
14348;SDS011;7258;50.376;8.742;2023-10-08T10:38:40;9.48;;;5.70;;
14348;SDS011;7258;50.376;8.742;2023-10-08T10:40:47;8.10;;;5.70;;
14348;SDS011;7258;50.376;8.742;2023-10-08T10:42:58;11.40;;;5.05;;
14348;SDS011;7258;50.376;8.742;2023-10-08T10:45:03;13.15;;;5.22;;
14348;SDS011;7258;50.376;8.742;2023-10-08T10:47:10;8.32;;;5.00;;
14348;SDS011;7258;50.376;8.742;2023-10-08T10:49:27;12.75;;;5.10;;
14348;SDS011;7258;50.376;8.742;2023-10-08T10:51:33;13.95;;;5.70;;
14348;SDS011;7258;50.376;8.742;2023-10-08T10:53:38;12.60;;;5.63;;
14348;SDS011;7258;50.376;8.742;2023-10-08T10:55:51;15.15;;;6.20;;
14348;SDS011;7258;50.376;8.742;2023-10-08T10:58:00;8.50;;;5.78;;
14348;SDS011;7258;50.376;8.742;2023-10-08T11:00:12;10.80;;;6.22;;
14348;SDS011;7258;50.376;8.742;2023-10-08T11:02:39;10.45;;;5.88;;
14348;SDS011;7258;50.376;8.742;2023-10-08T11:04:44;12.68;;;6.03;;
14348;SDS011;7258;50.376;8.742;2023-10-08T11:06:49;9.50;;;6.22;;
14348;SDS011;7258;50.376;8.742;2023-10-08T11:08:57;12.20;;;5.80;;
14348;SDS011;7258;50.376;8.742;2023-10-08T11:11:02;14.63;;;5.97;;
14348;SDS011;7258;50.376;8.742;2023-10-08T11:13:08;11.68;;;6.10;;
14348;SDS011;7258;50.376;8.742;2023-10-08T11:15:16;13.85;;;6.18;;
14348;SDS011;7258;50.376;8.742;2023-10-08T11:17:22;13.77;;;6.28;;
14348;SDS011;7258;50.376;8.742;2023-10-08T11:19:27;12.95;;;6.55;;
14348;SDS011;7258;50.376;8.742;2023-10-08T11:21:30;11.15;;;5.43;;
14348;SDS011;7258;50.376;8.742;2023-10-08T11:23:36;12.60;;;6.22;;
14348;SDS011;7258;50.376;8.742;2023-10-08T11:25:51;16.23;;;6.25;;
14348;SDS011;7258;50.376;8.742;2023-10-08T11:27:55;12.02;;;6.82;;
14348;SDS011;7258;50.376;8.742;2023-10-08T11:30:03;11.27;;;6.18;;
14348;SDS011;7258;50.376;8.742;2023-10-08T11:32:13;11.18;;;6.63;;
14348;SDS011;7258;50.376;8.742;2023-10-08T11:34:18;8.63;;;5.85;;
14348;SDS011;7258;50.376;8.742;2023-10-08T11:36:26;12.02;;;6.30;;
14348;SDS011;7258;50.376;8.742;2023-10-08T11:38:37;11.65;;;6.60;;
14348;SDS011;7258;50.376;8.742;2023-10-08T11:40:39;12.05;;;6.43;;
14348;SDS011;7258;50.376;8.742;2023-10-08T11:42:50;13.25;;;6.55;;
14348;SDS011;7258;50.376;8.742;2023-10-08T11:44:54;11.55;;;6.18;;
14348;SDS011;7258;50.376;8.742;2023-10-08T11:47:00;12.02;;;6.80;;
14348;SDS011;7258;50.376;8.742;2023-10-08T11:49:12;15.27;;;6.53;;
14348;SDS011;7258;50.376;8.742;2023-10-08T11:51:19;15.65;;;6.18;;
14348;SDS011;7258;50.376;8.742;2023-10-08T11:53:26;8.40;;;5.15;;
14348;SDS011;7258;50.376;8.742;2023-10-08T11:55:30;12.25;;;5.82;;
14348;SDS011;7258;50.376;8.742;2023-10-08T11:57:37;9.60;;;5.47;;
14348;SDS011;7258;50.376;8.742;2023-10-08T11:59:46;9.40;;;4.20;;
14348;SDS011;7258;50.376;8.742;2023-10-08T12:01:50;7.25;;;3.78;;
14348;SDS011;7258;50.376;8.742;2023-10-08T12:03:53;6.10;;;3.70;;
14348;SDS011;7258;50.376;8.742;2023-10-08T12:06:00;11.32;;;3.97;;
14348;SDS011;7258;50.376;8.742;2023-10-08T12:08:06;6.10;;;3.58;;
14348;SDS011;7258;50.376;8.742;2023-10-08T12:10:10;7.40;;;3.60;;
14348;SDS011;7258;50.376;8.742;2023-10-08T12:12:12;6.72;;;4.00;;
14348;SDS011;7258;50.376;8.742;2023-10-08T12:14:16;5.43;;;3.70;;
14348;SDS011;7258;50.376;8.742;2023-10-08T12:16:19;7.30;;;4.13;;
14348;SDS011;7258;50.376;8.742;2023-10-08T12:18:25;8.40;;;4.10;;
14348;SDS011;7258;50.376;8.742;2023-10-08T12:20:30;6.25;;;3.92;;
14348;SDS011;7258;50.376;8.742;2023-10-08T12:22:35;4.35;;;3.05;;
14348;SDS011;7258;50.376;8.742;2023-10-08T12:24:38;3.45;;;2.47;;
14348;SDS011;7258;50.376;8.742;2023-10-08T12:26:41;5.78;;;2.63;;
14348;SDS011;7258;50.376;8.742;2023-10-08T12:28:47;3.83;;;2.78;;
14348;SDS011;7258;50.376;8.742;2023-10-08T12:30:50;3.85;;;2.22;;
14348;SDS011;7258;50.376;8.742;2023-10-08T12:32:53;8.63;;;2.30;;
14348;SDS011;7258;50.376;8.742;2023-10-08T12:34:59;6.15;;;2.97;;
14348;SDS011;7258;50.376;8.742;2023-10-08T12:37:02;4.05;;;2.53;;
14348;SDS011;7258;50.376;8.742;2023-10-08T12:39:06;2.97;;;2.67;;
14348;SDS011;7258;50.376;8.742;2023-10-08T12:41:15;6.28;;;2.72;;
14348;SDS011;7258;50.376;8.742;2023-10-08T12:43:20;4.75;;;2.70;;
14348;SDS011;7258;50.376;8.742;2023-10-08T12:45:23;4.32;;;2.35;;
14348;SDS011;7258;50.376;8.742;2023-10-08T12:47:28;5.55;;;2.75;;
14348;SDS011;7258;50.376;8.742;2023-10-08T12:49:31;4.82;;;2.38;;
14348;SDS011;7258;50.376;8.742;2023-10-08T12:51:36;7.47;;;3.55;;
14348;SDS011;7258;50.376;8.742;2023-10-08T12:53:42;8.73;;;3.63;;
14348;SDS011;7258;50.376;8.742;2023-10-08T12:55:52;6.38;;;3.05;;